Time;durP1;ratioP1;P1;durP2;ratioP2;P2;SDS_P1;SDS_P2;PMS_P1;PMS_P2;Temp;Humidity;BMP_temperature;BMP_pressure;BME280_temperature;BME280_humidity;BME280_pressure;Samples;Min_cycle;Max_cycle;Signal;HPM_P1;HPM_P2
2022/03/11 00:01:54;;;;;;;5.90;5.03;;;8.80;90.20;;;;;;5051380;28;20244;-45
2022/03/11 00:04:38;;;;;;;6.38;5.18;;;8.80;89.40;;;;;;5046907;28;20465;-46
2022/03/11 00:07:06;;;;;;;8.45;5.57;;;8.80;89.30;;;;;;5064188;28;20192;-49
2022/03/11 00:09:35;;;;;;;5.50;4.97;;;8.80;89.70;;;;;;5056283;28;20226;-47
2022/03/11 00:12:06;;;;;;;5.70;4.50;;;8.80;89.40;;;;;;5050654;28;20250;-49
2022/03/11 00:14:34;;;;;;;6.70;5.35;;;8.80;90.00;;;;;;5047324;28;20461;-49
2022/03/11 00:17:03;;;;;;;5.85;5.25;;;8.80;90.00;;;;;;5069357;28;20678;-49
2022/03/11 00:19:31;;;;;;;5.45;4.53;;;8.80;90.10;;;;;;5069180;28;20223;-46
2022/03/11 00:21:59;;;;;;;6.88;5.57;;;8.80;90.20;;;;;;5064591;28;20255;-47
2022/03/11 00:24:29;;;;;;;6.43;4.15;;;8.80;90.00;;;;;;5068676;28;20250;-45
2022/03/11 00:26:59;;;;;;;6.70;4.55;;;8.80;90.20;;;;;;5069840;28;20191;-45
2022/03/11 00:29:28;;;;;;;6.00;5.40;;;8.80;90.70;;;;;;5064542;28;20216;-48
2022/03/11 00:31:56;;;;;;;4.82;4.40;;;8.80;90.40;;;;;;5053866;28;20525;-49
2022/03/11 00:34:24;;;;;;;5.30;4.38;;;8.80;90.70;;;;;;5072235;28;20224;-49
2022/03/11 00:36:53;;;;;;;5.20;4.80;;;8.80;90.50;;;;;;5072069;28;20205;-48
2022/03/11 00:39:23;;;;;;;4.20;3.60;;;8.80;90.60;;;;;;5072890;28;20304;-47
2022/03/11 00:41:51;;;;;;;5.80;5.20;;;8.80;90.90;;;;;;5072702;28;20204;-48
2022/03/11 00:44:21;;;;;;;5.10;4.60;;;8.80;90.60;;;;;;5067102;28;20568;-48
2022/03/11 00:46:49;;;;;;;6.72;5.03;;;8.80;90.50;;;;;;5064391;28;20941;-47
2022/03/11 00:49:17;;;;;;;5.53;4.60;;;8.80;90.70;;;;;;5072964;28;20685;-48
2022/03/11 00:51:45;;;;;;;5.82;4.35;;;8.80;90.30;;;;;;5057757;28;20626;-46
2022/03/11 00:54:13;;;;;;;6.97;4.85;;;8.80;90.30;;;;;;5072411;28;20202;-46
2022/03/11 00:56:41;;;;;;;5.67;4.20;;;8.80;90.40;;;;;;5072469;28;20264;-48
2022/03/11 00:59:09;;;;;;;5.38;4.80;;;8.80;90.40;;;;;;5071089;28;20450;-47
2022/03/11 01:01:39;;;;;;;5.68;4.18;;;8.80;90.50;;;;;;5072683;28;20268;-47
2022/03/11 01:04:07;;;;;;;6.80;4.70;;;8.80;90.50;;;;;;5071831;28;20534;-49
2022/03/11 01:06:36;;;;;;;5.47;4.15;;;8.80;90.60;;;;;;5070508;28;20716;-49
2022/03/11 01:09:04;;;;;;;5.88;5.00;;;8.70;90.70;;;;;;5072475;28;20624;-47
2022/03/11 01:11:32;;;;;;;7.20;5.70;;;8.80;90.70;;;;;;5054688;28;20234;-47
2022/03/11 01:14:00;;;;;;;7.03;5.35;;;8.80;90.70;;;;;;5073135;28;20487;-56
2022/03/11 01:16:28;;;;;;;5.53;4.38;;;8.80;90.70;;;;;;5067458;28;20283;-50
2022/03/11 01:18:58;;;;;;;5.75;5.13;;;8.80;90.80;;;;;;5072732;28;20559;-46
2022/03/11 01:21:26;;;;;;;6.03;4.63;;;8.80;90.90;;;;;;5052727;28;20284;-47
2022/03/11 01:23:54;;;;;;;5.97;4.95;;;8.80;90.90;;;;;;5064787;28;20195;-47
2022/03/11 01:26:22;;;;;;;4.85;4.35;;;8.70;90.70;;;;;;5062990;28;20621;-48
2022/03/11 01:28:50;;;;;;;5.82;4.53;;;8.70;90.60;;;;;;5072282;28;20205;-47
2022/03/11 01:31:18;;;;;;;5.28;4.43;;;8.80;91.00;;;;;;5057175;28;20277;-46
2022/03/11 01:33:47;;;;;;;5.97;5.07;;;8.80;90.70;;;;;;5072112;28;20192;-47
2022/03/11 01:36:16;;;;;;;10.57;4.67;;;8.80;90.60;;;;;;5065898;28;20273;-47
2022/03/11 01:38:44;;;;;;;5.47;4.72;;;8.70;90.80;;;;;;5072253;28;20431;-47
2022/03/11 01:41:13;;;;;;;5.72;4.95;;;8.70;91.10;;;;;;5071674;28;20222;-49
2022/03/11 01:43:59;;;;;;;5.55;4.78;;;8.70;90.80;;;;;;5071084;28;20191;-49
2022/03/11 01:46:28;;;;;;;6.50;5.05;;;8.70;90.80;;;;;;5071151;28;20223;-47
2022/03/11 01:48:57;;;;;;;4.47;4.07;;;8.70;90.60;;;;;;5071721;28;20197;-47
2022/03/11 01:51:27;;;;;;;6.05;4.90;;;8.70;90.00;;;;;;5065747;28;20292;-48
2022/03/11 01:53:56;;;;;;;5.70;5.00;;;8.70;90.40;;;;;;5071034;28;20366;-48
2022/03/11 01:56:25;;;;;;;6.53;4.72;;;8.70;90.60;;;;;;5070492;28;20466;-48
2022/03/11 01:58:55;;;;;;;5.88;5.35;;;8.70;90.10;;;;;;5071720;28;20234;-46
2022/03/11 02:01:24;;;;;;;6.82;5.28;;;8.70;90.40;;;;;;5063439;28;20277;-48
2022/03/11 02:03:52;;;;;;;7.03;5.18;;;8.70;90.30;;;;;;5071513;28;20215;-48
2022/03/11 02:06:21;;;;;;;7.18;5.45;;;8.70;90.20;;;;;;5064758;28;20217;-49
2022/03/11 02:08:51;;;;;;;6.28;5.15;;;8.60;90.20;;;;;;5071656;28;20199;-46
2022/03/11 02:11:19;;;;;;;9.13;6.07;;;8.60;90.00;;;;;;5070562;28;20221;-48
2022/03/11 02:13:51;;;;;;;6.10;5.15;;;8.60;90.20;;;;;;5067240;28;20354;-47
2022/03/11 02:16:21;;;;;;;5.78;5.28;;;8.60;90.30;;;;;;5070648;28;20615;-49
2022/03/11 02:18:49;;;;;;;4.85;4.45;;;8.60;90.20;;;;;;5071498;28;20196;-50
2022/03/11 02:21:19;;;;;;;7.10;4.80;;;8.60;90.70;;;;;;5062739;28;20226;-47
2022/03/11 02:23:50;;;;;;;5.68;4.85;;;8.60;90.60;;;;;;5070523;28;20601;-49
2022/03/11 02:26:20;;;;;;;5.60;4.55;;;8.60;90.80;;;;;;5070245;28;20251;-47
2022/03/11 02:28:50;;;;;;;5.70;5.20;;;8.60;90.70;;;;;;5071283;28;20197;-47
2022/03/11 02:31:19;;;;;;;5.90;4.93;;;8.60;90.80;;;;;;5060135;28;20257;-48
2022/03/11 02:33:48;;;;;;;5.57;4.88;;;8.60;90.70;;;;;;5071664;28;20254;-46
2022/03/11 02:36:16;;;;;;;5.93;5.10;;;8.70;90.80;;;;;;5065492;28;20221;-48
2022/03/11 02:38:44;;;;;;;4.93;4.50;;;8.60;90.90;;;;;;5071252;28;20959;-48
2022/03/11 02:41:14;;;;;;;4.60;4.00;;;8.70;90.70;;;;;;5070803;28;20224;-47
2022/03/11 02:43:43;;;;;;;5.70;4.53;;;8.70;91.10;;;;;;5069268;28;20186;-50
2022/03/11 02:46:13;;;;;;;4.93;4.15;;;8.60;91.00;;;;;;5069842;28;20215;-50
2022/03/11 02:48:42;;;;;;;6.38;5.18;;;8.70;91.10;;;;;;5071192;28;20572;-46
2022/03/11 02:51:10;;;;;;;4.30;3.90;;;8.70;91.20;;;;;;5061499;28;20691;-48
2022/03/11 02:53:40;;;;;;;4.60;4.20;;;8.60;91.50;;;;;;5069934;28;20603;-47
2022/03/11 02:56:10;;;;;;;5.90;4.18;;;8.60;91.60;;;;;;5061393;28;20205;-49
2022/03/11 02:58:41;;;;;;;7.18;5.00;;;8.70;91.70;;;;;;5071261;28;20241;-48
2022/03/11 03:01:09;;;;;;;4.38;3.97;;;8.60;91.50;;;;;;5067179;28;20210;-47
2022/03/11 03:03:38;;;;;;;6.80;4.30;;;8.60;91.60;;;;;;5070494;28;20291;-49
2022/03/11 03:06:08;;;;;;;4.53;3.42;;;8.60;91.60;;;;;;5047787;28;20251;-48
2022/03/11 03:08:36;;;;;;;4.88;4.05;;;8.60;91.60;;;;;;5070934;28;20181;-49
2022/03/11 03:11:04;;;;;;;6.85;3.78;;;8.60;91.50;;;;;;5070066;28;20715;-46
2022/03/11 03:13:32;;;;;;;4.20;3.65;;;8.60;91.60;;;;;;5070520;28;20659;-48
2022/03/11 03:16:01;;;;;;;3.33;3.03;;;8.60;91.70;;;;;;5049813;28;20234;-47
2022/03/11 03:18:30;;;;;;;4.97;3.75;;;8.60;91.70;;;;;;5070534;28;20197;-49
2022/03/11 03:20:58;;;;;;;4.18;3.78;;;8.60;91.80;;;;;;5064447;28;20683;-48
2022/03/11 03:23:26;;;;;;;4.70;4.05;;;8.60;91.70;;;;;;5059639;28;20210;-48
2022/03/11 03:25:55;;;;;;;4.22;3.70;;;8.60;91.70;;;;;;5047196;28;20288;-49
2022/03/11 03:28:23;;;;;;;3.70;3.40;;;8.60;91.90;;;;;;5069830;28;20255;-48
2022/03/11 03:30:51;;;;;;;4.13;3.72;;;8.60;91.90;;;;;;5050645;28;20266;-46
2022/03/11 03:33:21;;;;;;;3.67;3.28;;;8.60;91.80;;;;;;5067165;28;20240;-47
2022/03/11 03:35:49;;;;;;;5.35;4.25;;;8.60;92.00;;;;;;5064853;28;20209;-47
2022/03/11 03:38:20;;;;;;;3.45;3.15;;;8.60;92.10;;;;;;5069303;28;20196;-48
2022/03/11 03:40:48;;;;;;;4.70;4.00;;;8.60;92.20;;;;;;5069634;28;20220;-49
2022/03/11 03:43:16;;;;;;;4.10;3.38;;;8.60;92.10;;;;;;5069690;28;20514;-48
2022/03/11 03:45:44;;;;;;;3.95;3.42;;;8.60;92.10;;;;;;5057226;28;20276;-50
2022/03/11 03:48:12;;;;;;;5.30;3.95;;;8.60;92.10;;;;;;5067525;28;20272;-49
2022/03/11 03:50:42;;;;;;;4.97;3.97;;;8.60;92.20;;;;;;5066269;28;20308;-46
2022/03/11 03:53:10;;;;;;;4.22;3.15;;;8.60;92.30;;;;;;5066417;28;20747;-48
2022/03/11 03:55:38;;;;;;;4.20;3.33;;;8.60;92.30;;;;;;5070422;28;20217;-47
2022/03/11 03:58:07;;;;;;;4.20;3.80;;;8.60;92.30;;;;;;5071139;28;20275;-49
2022/03/11 04:00:35;;;;;;;4.97;3.47;;;8.60;92.20;;;;;;5064947;28;20269;-46
2022/03/11 04:03:04;;;;;;;3.58;3.05;;;8.50;92.20;;;;;;5071146;28;20766;-49
2022/03/11 04:05:32;;;;;;;3.70;2.95;;;8.60;92.20;;;;;;5070619;28;20230;-47
2022/03/11 04:08:01;;;;;;;4.03;3.45;;;8.50;92.10;;;;;;5070143;28;20243;-47
2022/03/11 04:10:29;;;;;;;3.20;2.90;;;8.50;92.20;;;;;;5073813;28;20304;-48
2022/03/11 04:12:58;;;;;;;4.32;3.92;;;8.60;92.20;;;;;;5074157;28;20621;-49
2022/03/11 04:15:26;;;;;;;4.88;4.40;;;8.50;92.10;;;;;;5069898;28;20308;-48
2022/03/11 04:17:54;;;;;;;3.70;3.40;;;8.50;92.10;;;;;;5073548;28;20189;-46
2022/03/11 04:20:22;;;;;;;6.40;4.13;;;8.50;92.20;;;;;;5071166;28;20688;-46
2022/03/11 04:22:50;;;;;;;5.50;4.05;;;8.50;92.10;;;;;;5071565;28;20213;-47
2022/03/11 04:25:19;;;;;;;4.25;3.80;;;8.50;92.30;;;;;;5073199;28;20241;-48
2022/03/11 04:27:47;;;;;;;4.72;4.20;;;8.50;91.80;;;;;;5072793;28;20193;-49
2022/03/11 04:30:21;;;;;;;5.15;4.10;;;8.50;91.70;;;;;;5052997;28;20226;-48
2022/03/11 04:32:49;;;;;;;4.40;4.00;;;8.50;91.90;;;;;;5071133;28;20210;-49
2022/03/11 04:35:17;;;;;;;5.95;4.85;;;8.50;91.40;;;;;;5072069;28;20222;-47
2022/03/11 04:37:45;;;;;;;3.70;3.40;;;8.50;91.20;;;;;;5065254;28;20337;-48
2022/03/11 04:40:13;;;;;;;5.75;4.15;;;8.40;91.30;;;;;;5072917;28;20216;-47
2022/03/11 04:42:42;;;;;;;6.97;4.45;;;8.40;91.60;;;;;;5054799;28;20228;-46
2022/03/11 04:45:11;;;;;;;6.35;4.72;;;8.40;91.30;;;;;;5069192;28;20213;-49
2022/03/11 04:47:39;;;;;;;4.03;3.33;;;8.40;91.20;;;;;;5073038;28;20605;-46
2022/03/11 04:50:09;;;;;;;5.45;4.53;;;8.40;91.40;;;;;;5072967;28;20704;-46
2022/03/11 04:52:37;;;;;;;4.65;3.60;;;8.40;91.50;;;;;;5069737;28;20240;-49
2022/03/11 04:55:06;;;;;;;6.95;4.60;;;8.40;91.70;;;;;;5071661;28;20263;-47
2022/03/11 04:57:34;;;;;;;4.65;4.15;;;8.40;91.50;;;;;;5072282;28;20208;-47
2022/03/11 05:00:04;;;;;;;6.63;5.18;;;8.40;91.40;;;;;;5069157;28;20254;-47
2022/03/11 05:02:32;;;;;;;4.97;4.25;;;8.40;91.00;;;;;;5069686;28;20207;-48
2022/03/11 05:05:04;;;;;;;5.03;4.50;;;8.30;91.40;;;;;;5072073;28;20227;-46
2022/03/11 05:07:33;;;;;;;5.25;4.70;;;8.30;91.30;;;;;;5070066;28;20205;-48
2022/03/11 05:10:01;;;;;;;6.97;4.45;;;8.30;90.90;;;;;;5072458;28;20229;-46
2022/03/11 05:12:30;;;;;;;4.95;4.45;;;8.30;91.10;;;;;;5071693;28;20239;-47
2022/03/11 05:15:00;;;;;;;6.63;5.15;;;8.30;91.10;;;;;;5067210;28;20224;-47
2022/03/11 05:17:29;;;;;;;4.82;4.07;;;8.30;90.80;;;;;;5072803;28;20185;-48
2022/03/11 05:19:58;;;;;;;7.03;5.15;;;8.20;91.00;;;;;;5054120;28;20222;-48
2022/03/11 05:22:26;;;;;;;5.97;4.85;;;8.30;90.30;;;;;;5065571;28;20205;-48
2022/03/11 05:24:54;;;;;;;5.35;4.32;;;8.20;90.30;;;;;;5067067;28;20220;-48
2022/03/11 05:27:22;;;;;;;5.72;4.75;;;8.20;90.70;;;;;;5071994;28;20220;-49
2022/03/11 05:29:51;;;;;;;5.22;4.63;;;8.20;91.00;;;;;;5069546;28;20230;-47
2022/03/11 05:32:20;;;;;;;6.78;5.05;;;8.20;91.00;;;;;;5068119;28;20584;-48
2022/03/11 05:34:50;;;;;;;6.22;5.13;;;8.20;91.00;;;;;;5070923;28;20208;-47
2022/03/11 05:37:18;;;;;;;5.75;4.72;;;8.20;90.90;;;;;;5068864;28;20197;-46
2022/03/11 05:39:46;;;;;;;6.55;5.20;;;8.20;90.90;;;;;;5071738;28;20245;-47
2022/03/11 05:42:14;;;;;;;6.28;4.85;;;8.20;91.20;;;;;;5072476;28;20213;-46
2022/03/11 05:44:42;;;;;;;4.85;4.45;;;8.20;91.20;;;;;;5070252;28;20210;-47
2022/03/11 05:47:11;;;;;;;8.13;4.82;;;8.20;91.30;;;;;;5072603;28;20194;-50
2022/03/11 05:49:39;;;;;;;7.10;4.20;;;8.20;91.20;;;;;;5071519;28;20229;-50
2022/03/11 05:52:09;;;;;;;5.20;4.70;;;8.20;91.20;;;;;;5070853;28;20269;-49
2022/03/11 05:54:38;;;;;;;6.18;4.93;;;8.20;91.10;;;;;;5071130;28;20220;-48
2022/03/11 05:57:10;;;;;;;6.57;4.55;;;8.10;90.70;;;;;;5072093;28;20210;-47
2022/03/11 05:59:38;;;;;;;6.95;4.75;;;8.20;91.40;;;;;;5064423;28;20269;-47
2022/03/11 06:02:07;;;;;;;5.32;4.82;;;8.20;91.40;;;;;;5052019;28;20257;-47
2022/03/11 06:04:36;;;;;;;5.63;4.80;;;8.20;91.50;;;;;;5051498;28;20225;-48
2022/03/11 06:07:06;;;;;;;5.05;4.55;;;8.20;91.40;;;;;;5051519;28;20648;-49
2022/03/11 06:09:37;;;;;;;6.00;4.90;;;8.20;91.30;;;;;;5051586;28;20213;-49
2022/03/11 06:12:07;;;;;;;6.78;4.50;;;8.20;91.40;;;;;;5068171;28;20299;-49
2022/03/11 06:14:35;;;;;;;5.38;4.43;;;8.20;91.00;;;;;;5070350;28;20709;-47
2022/03/11 06:17:04;;;;;;;8.02;5.10;;;8.10;91.40;;;;;;5069700;28;20196;-48
2022/03/11 06:19:32;;;;;;;7.35;5.28;;;8.10;91.00;;;;;;5070595;28;20221;-50
2022/03/11 06:22:00;;;;;;;8.60;6.00;;;8.20;91.30;;;;;;5056963;28;20239;-48
2022/03/11 06:24:30;;;;;;;5.60;4.82;;;8.10;91.30;;;;;;5057525;28;20698;-49
2022/03/11 06:26:59;;;;;;;8.85;5.55;;;8.10;91.20;;;;;;5071739;28;20183;-46
2022/03/11 06:29:28;;;;;;;9.73;5.80;;;8.10;91.40;;;;;;5068115;28;20224;-49
2022/03/11 06:31:56;;;;;;;5.75;4.80;;;8.10;91.40;;;;;;5067166;28;20205;-49
2022/03/11 06:34:25;;;;;;;6.55;5.70;;;8.10;91.60;;;;;;5069863;28;20689;-49
2022/03/11 06:36:58;;;;;;;6.45;5.60;;;8.10;91.40;;;;;;5058942;28;20200;-49
2022/03/11 06:39:26;;;;;;;6.80;5.40;;;8.10;91.40;;;;;;5055806;28;20231;-49
2022/03/11 06:41:54;;;;;;;5.95;5.35;;;8.10;91.40;;;;;;5070990;28;20204;-48
2022/03/11 06:44:32;;;;;;;6.35;5.47;;;8.10;91.70;;;;;;5069618;28;20219;-49
2022/03/11 06:47:00;;;;;;;5.38;4.85;;;8.10;91.60;;;;;;5051077;28;20682;-47
2022/03/11 06:49:28;;;;;;;6.80;5.30;;;8.10;91.60;;;;;;5055005;28;20555;-46
2022/03/11 06:51:56;;;;;;;5.90;5.22;;;8.10;91.20;;;;;;5056861;28;20401;-49
2022/03/11 06:54:24;;;;;;;6.82;5.13;;;8.10;91.50;;;;;;5053108;28;20235;-49
2022/03/11 06:56:52;;;;;;;6.72;6.03;;;8.10;91.50;;;;;;5068650;28;20188;-49
2022/03/11 06:59:21;;;;;;;6.90;5.47;;;8.10;91.50;;;;;;5060741;28;20280;-47
2022/03/11 07:01:50;;;;;;;7.00;6.20;;;8.10;91.20;;;;;;5069513;28;20262;-46
2022/03/11 07:04:18;;;;;;;9.07;6.95;;;8.10;91.40;;;;;;5068856;28;20257;-47
2022/03/11 07:06:47;;;;;;;6.22;5.60;;;8.10;91.20;;;;;;5066694;28;20184;-48
2022/03/11 07:09:15;;;;;;;9.27;6.78;;;8.10;91.40;;;;;;5069739;28;20207;-48
2022/03/11 07:11:46;;;;;;;7.35;5.85;;;8.00;91.00;;;;;;5057692;28;20294;-47
2022/03/11 07:14:14;;;;;;;7.25;6.47;;;8.10;91.20;;;;;;5037079;28;20196;-47
2022/03/11 07:16:42;;;;;;;9.68;6.97;;;8.00;90.80;;;;;;5058180;28;20184;-48
2022/03/11 07:19:12;;;;;;;7.07;6.32;;;8.00;91.00;;;;;;5055847;28;20189;-47
2022/03/11 07:21:44;;;;;;;6.57;5.78;;;8.00;91.00;;;;;;5060352;28;20220;-50
2022/03/11 07:24:12;;;;;;;9.00;6.07;;;8.00;90.80;;;;;;5069021;28;20254;-49
2022/03/11 07:26:40;;;;;;;9.30;7.00;;;8.00;91.10;;;;;;5070512;28;20267;-47
2022/03/11 07:29:08;;;;;;;11.15;7.35;;;8.00;91.00;;;;;;5061410;28;20732;-46
2022/03/11 07:31:36;;;;;;;11.40;7.38;;;8.00;90.90;;;;;;5055299;28;20207;-48
2022/03/11 07:34:05;;;;;;;8.52;5.65;;;8.00;91.20;;;;;;5069768;28;20299;-46
2022/03/11 07:36:35;;;;;;;9.57;6.90;;;8.00;91.40;;;;;;5064465;28;20184;-48
2022/03/11 07:39:04;;;;;;;8.32;6.18;;;8.00;91.00;;;;;;5070142;28;20585;-46
2022/03/11 07:41:34;;;;;;;8.07;6.75;;;8.10;91.40;;;;;;5069598;28;20220;-48
2022/03/11 07:44:02;;;;;;;6.28;5.63;;;8.00;91.30;;;;;;5070622;28;20287;-48
2022/03/11 07:46:50;;;;;;;7.80;6.88;;;8.00;91.50;;;;;;5050818;28;20219;-49
2022/03/11 07:49:18;;;;;;;7.40;5.80;;;8.10;91.50;;;;;;5069813;28;20280;-48
2022/03/11 07:51:48;;;;;;;7.18;6.47;;;8.10;91.50;;;;;;5068812;28;20218;-47
2022/03/11 07:54:16;;;;;;;9.77;7.03;;;8.10;91.30;;;;;;5069054;28;20250;-48
2022/03/11 07:56:44;;;;;;;9.98;6.65;;;8.10;91.20;;;;;;5070154;28;20188;-47
2022/03/11 07:59:13;;;;;;;9.35;6.18;;;8.10;91.60;;;;;;5069475;28;20675;-53
2022/03/11 08:01:41;;;;;;;6.53;5.53;;;8.10;91.40;;;;;;5058023;28;20232;-49
2022/03/11 08:04:13;;;;;;;7.82;5.80;;;8.10;91.50;;;;;;5069279;28;20184;-47
2022/03/11 08:06:42;;;;;;;6.53;5.88;;;8.10;91.60;;;;;;5063708;28;20200;-46
2022/03/11 08:09:12;;;;;;;7.30;5.75;;;8.10;91.60;;;;;;5068444;28;20271;-47
2022/03/11 08:11:40;;;;;;;10.23;6.57;;;8.10;91.80;;;;;;5069581;28;20255;-46
2022/03/11 08:14:08;;;;;;;6.85;5.78;;;8.20;92.00;;;;;;5066807;28;20212;-47
2022/03/11 08:16:36;;;;;;;6.22;5.22;;;8.20;91.90;;;;;;5061433;28;20197;-50
2022/03/11 08:19:09;;;;;;;7.38;5.88;;;8.20;91.90;;;;;;5049607;28;20190;-46
2022/03/11 08:21:49;;;;;;;7.32;5.00;;;8.10;92.10;;;;;;5050900;28;20216;-50
2022/03/11 08:24:19;;;;;;;8.13;5.25;;;8.20;92.10;;;;;;5069624;28;20226;-47
2022/03/11 08:26:48;;;;;;;7.65;6.38;;;8.20;92.10;;;;;;5069278;28;20204;-49
2022/03/11 08:29:17;;;;;;;6.45;5.82;;;8.20;92.20;;;;;;5051871;28;20203;-46
2022/03/11 08:31:47;;;;;;;6.35;5.47;;;8.20;92.10;;;;;;5063848;28;20239;-48
2022/03/11 08:34:16;;;;;;;7.45;6.30;;;8.20;92.20;;;;;;5069082;28;20208;-48
2022/03/11 08:36:44;;;;;;;6.05;4.75;;;8.20;92.20;;;;;;5056117;28;20708;-48
2022/03/11 08:39:12;;;;;;;8.13;6.13;;;8.20;92.20;;;;;;5057876;28;20220;-46
2022/03/11 08:41:42;;;;;;;7.30;5.35;;;8.20;92.20;;;;;;5066758;28;20220;-46
2022/03/11 08:44:11;;;;;;;7.10;4.93;;;8.20;92.10;;;;;;5050538;28;20181;-49
2022/03/11 08:46:40;;;;;;;7.18;5.15;;;8.20;92.00;;;;;;5054177;28;20197;-46
2022/03/11 08:49:08;;;;;;;7.88;5.78;;;8.20;92.00;;;;;;5054902;28;20185;-46
2022/03/11 08:51:37;;;;;;;8.77;6.15;;;8.20;91.90;;;;;;5061926;28;20212;-48
2022/03/11 08:54:05;;;;;;;7.07;5.43;;;8.30;92.00;;;;;;5065746;28;20647;-47
2022/03/11 08:56:33;;;;;;;6.85;6.20;;;8.20;92.00;;;;;;5073325;28;20569;-48
2022/03/11 08:59:03;;;;;;;7.55;6.10;;;8.20;92.00;;;;;;5066312;28;20277;-49
2022/03/11 09:01:31;;;;;;;7.00;6.30;;;8.20;92.00;;;;;;5060745;28;20242;-47
2022/03/11 09:03:59;;;;;;;7.75;6.95;;;8.30;92.00;;;;;;5063859;28;20465;-47
2022/03/11 09:06:28;;;;;;;6.05;5.30;;;8.30;92.00;;;;;;5062751;28;20217;-49
2022/03/11 09:08:57;;;;;;;8.20;5.38;;;8.30;92.00;;;;;;5062802;28;20665;-47
2022/03/11 09:11:25;;;;;;;8.23;5.90;;;8.30;92.00;;;;;;5071569;28;20252;-48
2022/03/11 09:13:55;;;;;;;7.45;5.72;;;8.30;91.90;;;;;;5073114;28;20235;-46
2022/03/11 09:16:24;;;;;;;8.10;6.38;;;8.30;92.00;;;;;;5069599;28;20209;-48
2022/03/11 09:18:54;;;;;;;8.80;6.45;;;8.30;92.00;;;;;;5073288;28;20256;-47
2022/03/11 09:21:24;;;;;;;8.18;6.13;;;8.30;92.00;;;;;;5060604;28;20678;-47
2022/03/11 09:23:52;;;;;;;9.00;6.40;;;8.30;92.00;;;;;;5053006;28;20186;-50
2022/03/11 09:26:21;;;;;;;8.13;6.60;;;8.30;91.90;;;;;;5066929;28;20695;-49
2022/03/11 09:29:09;;;;;;;9.27;6.18;;;8.30;91.90;;;;;;5064437;28;20177;-47
2022/03/11 09:31:40;;;;;;;7.05;6.35;;;8.30;91.90;;;;;;5069777;28;20580;-48
2022/03/11 09:34:08;;;;;;;8.82;6.80;;;8.30;92.00;;;;;;5071720;28;20683;-47
2022/03/11 09:36:37;;;;;;;7.70;6.38;;;8.30;92.00;;;;;;5068127;28;20237;-48
2022/03/11 09:39:05;;;;;;;8.00;7.20;;;8.30;92.00;;;;;;5072946;28;20767;-48
2022/03/11 09:41:33;;;;;;;8.52;6.50;;;8.30;92.10;;;;;;5072374;28;20699;-50
2022/03/11 09:44:03;;;;;;;8.38;5.47;;;8.30;92.10;;;;;;5072513;28;20252;-48
2022/03/11 09:46:34;;;;;;;9.90;7.50;;;8.30;92.20;;;;;;5069824;28;20225;-50
2022/03/11 09:49:04;;;;;;;9.40;6.82;;;8.30;92.10;;;;;;5071785;28;20646;-47
2022/03/11 09:51:35;;;;;;;7.97;6.13;;;8.30;92.20;;;;;;5066343;28;20690;-46
2022/03/11 09:54:04;;;;;;;7.30;6.40;;;8.30;92.20;;;;;;5071801;28;20208;-50
2022/03/11 09:56:38;;;;;;;8.52;6.30;;;8.30;92.20;;;;;;5069790;28;20232;-47
2022/03/11 09:59:11;;;;;;;8.95;7.30;;;8.30;92.30;;;;;;5067526;28;20236;-47
2022/03/11 10:01:41;;;;;;;7.38;6.53;;;8.30;92.30;;;;;;5069541;28;20703;-49
2022/03/11 10:04:11;;;;;;;7.55;5.72;;;8.30;92.40;;;;;;5069830;28;20695;-48
2022/03/11 10:06:41;;;;;;;6.93;6.15;;;8.30;92.30;;;;;;5061097;28;20189;-50
2022/03/11 10:09:30;;;;;;;8.77;6.85;;;8.30;92.40;;;;;;5062159;28;20213;-49
2022/03/11 10:12:00;;;;;;;7.78;6.25;;;8.30;92.40;;;;;;5070985;28;20709;-49
2022/03/11 10:14:30;;;;;;;7.20;6.43;;;8.30;92.40;;;;;;5065377;28;20219;-48
2022/03/11 10:16:59;;;;;;;7.20;6.35;;;8.30;92.50;;;;;;5064307;28;20608;-47
2022/03/11 10:19:29;;;;;;;8.10;7.15;;;8.30;92.50;;;;;;5068639;28;21021;-49
2022/03/11 10:21:59;;;;;;;8.13;6.72;;;8.30;92.50;;;;;;5070313;28;20221;-50
2022/03/11 10:24:28;;;;;;;8.50;6.00;;;8.30;92.60;;;;;;5061661;28;20183;-47
2022/03/11 10:26:58;;;;;;;7.45;6.65;;;8.30;92.50;;;;;;5071675;28;20652;-46
2022/03/11 10:29:32;;;;;;;9.57;7.35;;;8.30;92.60;;;;;;5068287;28;20200;-47
2022/03/11 10:32:03;;;;;;;11.15;7.03;;;8.30;92.60;;;;;;5052076;28;20576;-48
2022/03/11 10:34:34;;;;;;;9.98;6.20;;;8.30;92.60;;;;;;5051002;28;20236;-47
2022/03/11 10:37:04;;;;;;;8.55;6.45;;;8.30;92.50;;;;;;5051204;28;20202;-48
2022/03/11 10:39:39;;;;;;;8.38;7.50;;;8.30;92.40;;;;;;5051340;28;20251;-48
2022/03/11 10:42:19;;;;;;;11.18;7.78;;;8.30;92.40;;;;;;5051595;28;20224;-47
2022/03/11 10:44:57;;;;;;;8.48;7.18;;;8.40;93.00;;;;;;5061699;28;20244;-46
2022/03/11 10:47:27;;;;;;;8.50;6.82;;;8.30;92.50;;;;;;5071022;28;20249;-46
2022/03/11 10:49:59;;;;;;;10.00;7.50;;;8.30;92.50;;;;;;5069575;28;20220;-48
2022/03/11 10:52:32;;;;;;;10.75;6.85;;;8.40;92.50;;;;;;5066705;28;20212;-48
2022/03/11 10:55:02;;;;;;;9.93;6.80;;;8.30;92.40;;;;;;5069580;28;20637;-46
2022/03/11 10:57:36;;;;;;;10.23;6.40;;;8.40;92.40;;;;;;5069092;28;20194;-48
2022/03/11 11:00:21;;;;;;;8.45;6.90;;;8.30;92.40;;;;;;5070418;28;20211;-48
2022/03/11 11:02:51;;;;;;;9.07;7.07;;;8.40;92.40;;;;;;5063802;28;20208;-47
2022/03/11 11:05:22;;;;;;;11.07;7.30;;;8.30;92.40;;;;;;5069292;28;20224;-49
2022/03/11 11:07:51;;;;;;;7.78;6.57;;;8.40;92.60;;;;;;5056667;28;20194;-49
2022/03/11 11:10:21;;;;;;;10.50;8.02;;;8.30;92.50;;;;;;5070280;28;20308;-48
2022/03/11 11:12:50;;;;;;;7.60;6.80;;;8.40;92.60;;;;;;5069015;28;20568;-49
2022/03/11 11:15:19;;;;;;;8.90;7.07;;;8.40;92.60;;;;;;5065685;28;20226;-48
2022/03/11 11:17:49;;;;;;;10.00;7.05;;;8.30;92.60;;;;;;5062577;28;20194;-49
2022/03/11 11:20:21;;;;;;;11.73;7.57;;;8.40;92.60;;;;;;5070582;28;20664;-48
2022/03/11 11:22:51;;;;;;;8.48;6.80;;;8.40;92.60;;;;;;5062636;28;20220;-47
2022/03/11 11:25:21;;;;;;;9.27;7.22;;;8.40;92.70;;;;;;5069227;28;20535;-46
2022/03/11 11:27:51;;;;;;;12.30;7.75;;;8.40;92.70;;;;;;5070017;28;20191;-46
2022/03/11 11:30:22;;;;;;;9.80;7.15;;;8.30;92.70;;;;;;5049202;28;20633;-48
2022/03/11 11:32:52;;;;;;;8.68;7.35;;;8.30;92.70;;;;;;5061098;28;20212;-48
2022/03/11 11:35:26;;;;;;;9.77;6.90;;;8.40;92.70;;;;;;5069061;28;20715;-50
2022/03/11 11:37:56;;;;;;;14.98;7.78;;;8.40;92.70;;;;;;5059715;28;20615;-47
2022/03/11 11:40:30;;;;;;;9.05;7.47;;;8.30;92.60;;;;;;5069997;28;20306;-47
2022/03/11 11:43:28;;;;;;;10.95;8.25;;;8.30;92.70;;;;;;5070531;28;20210;-47
2022/03/11 11:46:04;;;;;;;9.90;7.43;;;8.40;92.70;;;;;;5063037;28;20224;-50
2022/03/11 11:49:08;;;;;;;9.38;7.55;;;8.30;92.60;;;;;;5050481;28;20198;-48
2022/03/11 11:52:00;;;;;;;11.13;7.63;;;8.40;92.40;;;;;;5049896;28;20845;-49
2022/03/11 11:54:44;;;;;;;9.32;7.82;;;8.40;92.40;;;;;;5049457;28;20238;-47
2022/03/11 11:57:23;;;;;;;14.60;7.63;;;8.40;92.50;;;;;;5060933;28;20182;-47
2022/03/11 11:59:52;;;;;;;10.80;8.10;;;8.40;92.50;;;;;;5068779;28;20226;-48
2022/03/11 12:02:34;;;;;;;9.63;7.57;;;8.40;92.60;;;;;;5069828;28;20242;-48
2022/03/11 12:05:51;;;;;;;10.00;8.50;;;8.40;92.50;;;;;;5068828;28;20204;-48
2022/03/11 12:08:49;;;;;;;10.95;7.20;;;8.40;92.60;;;;;;5068231;28;20275;-48
2022/03/11 12:11:43;;;;;;;9.50;7.65;;;8.40;92.60;;;;;;5069004;28;20221;-47
2022/03/11 12:14:11;;;;;;;8.68;7.53;;;8.40;92.50;;;;;;5065370;28;20217;-50
2022/03/11 12:17:00;;;;;;;10.15;9.10;;;8.40;92.40;;;;;;5070121;28;20204;-50
2022/03/11 12:19:40;;;;;;;12.27;9.10;;;8.40;92.40;;;;;;5069813;28;21374;-48
2022/03/11 12:22:33;;;;;;;10.25;8.00;;;8.40;92.30;;;;;;5067823;28;20751;-47
2022/03/11 12:25:06;;;;;;;10.93;7.85;;;8.40;92.30;;;;;;5054240;28;20231;-50
2022/03/11 12:28:01;;;;;;;9.60;8.45;;;8.40;92.30;;;;;;5073575;28;20195;-46
2022/03/11 12:30:31;;;;;;;12.10;8.27;;;8.40;92.40;;;;;;5071078;28;20762;-47
2022/03/11 12:33:04;;;;;;;11.20;7.78;;;8.40;92.50;;;;;;5072318;28;20275;-50
2022/03/11 12:35:32;;;;;;;12.20;7.80;;;8.40;92.30;;;;;;5071150;28;20730;-46
2022/03/11 12:38:01;;;;;;;12.30;8.50;;;8.40;92.20;;;;;;5074024;28;20188;-48
2022/03/11 12:40:34;;;;;;;10.57;8.38;;;8.40;92.80;;;;;;5070905;28;20227;-49
2022/03/11 12:43:05;;;;;;;10.13;8.30;;;8.40;92.40;;;;;;5071884;28;20215;-47
2022/03/11 12:45:40;;;;;;;12.65;8.63;;;8.50;92.20;;;;;;5069431;28;20207;-49
2022/03/11 12:48:09;;;;;;;10.52;7.53;;;8.50;92.30;;;;;;5073257;28;20662;-47
2022/03/11 12:50:39;;;;;;;10.15;8.77;;;8.40;92.30;;;;;;5069899;28;20230;-48
2022/03/11 12:53:09;;;;;;;13.73;9.27;;;8.50;92.30;;;;;;5058703;28;20211;-49
2022/03/11 12:55:41;;;;;;;13.05;9.63;;;8.40;92.70;;;;;;5070663;28;20758;-47
2022/03/11 12:58:10;;;;;;;10.18;8.55;;;8.50;92.20;;;;;;5072566;28;20190;-49
2022/03/11 13:00:41;;;;;;;10.52;9.27;;;8.50;92.10;;;;;;5053704;28;20261;-46
2022/03/11 13:03:12;;;;;;;10.52;8.73;;;8.50;92.20;;;;;;5073476;28;20230;-47
2022/03/11 13:05:46;;;;;;;13.35;9.38;;;8.50;92.10;;;;;;5066572;28;20578;-48
2022/03/11 13:08:17;;;;;;;11.73;9.68;;;8.50;92.20;;;;;;5053725;28;20249;-47
2022/03/11 13:10:48;;;;;;;14.77;10.55;;;8.50;92.10;;;;;;5066045;28;20717;-47
2022/03/11 13:13:17;;;;;;;13.80;8.95;;;8.50;92.00;;;;;;5073661;28;20212;-47